Time;durP1;ratioP1;P1;durP2;ratioP2;P2;SDS_P1;SDS_P2;PMS_P1;PMS_P2;Temp;Humidity;BMP_temperature;BMP_pressure;BME280_temperature;BME280_humidity;BME280_pressure;Samples;Min_cycle;Max_cycle;Signal;HPM_P1;HPM_P2
2022/04/12 00:01:04;;;;;;;14.80;12.20;;;8.30;78.80;;;;;;5023922;28;20503;-69
2022/04/12 00:03:29;;;;;;;16.00;12.95;;;8.30;79.10;;;;;;5024387;28;20048;-69
2022/04/12 00:05:55;;;;;;;15.38;12.48;;;8.20;78.90;;;;;;5024520;28;20045;-69
2022/04/12 00:08:21;;;;;;;13.63;12.32;;;8.20;79.10;;;;;;5023559;28;20045;-69
2022/04/12 00:10:48;;;;;;;15.10;12.75;;;8.20;79.40;;;;;;5024708;28;20044;-69
2022/04/12 00:13:14;;;;;;;14.10;12.35;;;8.20;79.60;;;;;;5024754;28;20461;-69
2022/04/12 00:15:40;;;;;;;14.50;13.00;;;8.10;79.80;;;;;;5021294;28;20037;-69
2022/04/12 00:20:53;;;;;;;14.52;12.60;;;8.00;80.20;;;;;;5022082;28;20087;-69
2022/04/12 00:23:19;;;;;;;16.55;12.73;;;8.00;80.70;;;;;;5006679;28;20069;-69
2022/04/12 00:25:45;;;;;;;14.90;13.25;;;7.90;80.90;;;;;;5024296;28;20037;-69
2022/04/12 00:28:15;;;;;;;14.30;12.80;;;7.80;80.90;;;;;;5022652;28;20500;-69
2022/04/12 00:30:41;;;;;;;14.05;12.75;;;7.90;81.40;;;;;;5006517;28;20041;-69
2022/04/12 00:33:07;;;;;;;14.25;12.73;;;7.80;81.50;;;;;;5008213;28;20374;-69
2022/04/12 00:35:33;;;;;;;16.02;13.70;;;7.80;81.70;;;;;;5024384;28;20583;-69
2022/04/12 00:37:59;;;;;;;15.05;12.43;;;7.80;81.60;;;;;;5023961;28;20037;-69
2022/04/12 00:40:25;;;;;;;14.65;12.25;;;7.70;81.60;;;;;;5024089;28;20706;-69
2022/04/12 00:42:53;;;;;;;14.60;12.20;;;7.70;81.60;;;;;;5022026;28;20071;-69
2022/04/12 00:45:19;;;;;;;14.73;11.57;;;7.70;81.80;;;;;;5024473;28;20532;-69
2022/04/12 00:47:45;;;;;;;15.88;12.32;;;7.60;81.60;;;;;;5022442;28;20056;-69
2022/04/12 00:50:13;;;;;;;13.43;11.90;;;7.70;81.80;;;;;;5024425;28;20105;-69
2022/04/12 00:52:42;;;;;;;13.38;11.98;;;7.60;82.40;;;;;;5023979;28;20033;-69
2022/04/12 00:55:09;;;;;;;15.18;12.30;;;7.50;82.70;;;;;;5026355;28;20152;-69
2022/04/12 00:57:36;;;;;;;14.50;11.45;;;7.50;82.80;;;;;;5025743;28;20045;-69
2022/04/12 01:00:05;;;;;;;14.25;12.75;;;7.50;82.60;;;;;;5028390;28;20045;-69
2022/04/12 01:02:32;;;;;;;13.63;12.23;;;7.50;82.50;;;;;;5026655;28;20049;-69
2022/04/12 01:04:59;;;;;;;16.42;12.32;;;7.50;82.90;;;;;;5026586;28;20037;-69
2022/04/12 01:07:25;;;;;;;15.48;12.73;;;7.40;82.90;;;;;;5027647;28;20045;-69
2022/04/12 01:09:52;;;;;;;13.77;12.07;;;7.40;83.10;;;;;;5026788;28;20499;-69
2022/04/12 01:12:21;;;;;;;14.98;11.85;;;7.40;83.40;;;;;;5026907;28;20160;-69
2022/04/12 01:14:47;;;;;;;12.85;11.55;;;7.40;83.60;;;;;;5029899;28;20056;-69
2022/04/12 01:17:15;;;;;;;14.20;11.25;;;7.30;83.70;;;;;;5026552;28;20124;-69
2022/04/12 01:19:41;;;;;;;14.23;11.82;;;7.30;83.40;;;;;;5027760;28;20084;-69
2022/04/12 01:22:12;;;;;;;14.32;12.20;;;7.30;83.70;;;;;;5026639;28;20082;-69
2022/04/12 01:24:38;;;;;;;12.10;10.73;;;7.30;83.90;;;;;;5024405;28;20053;-69
2022/04/12 01:27:04;;;;;;;12.25;10.95;;;7.20;84.20;;;;;;5026093;28;20052;-69
2022/04/12 01:29:35;;;;;;;12.82;11.45;;;7.30;83.90;;;;;;5027742;28;20139;-69
2022/04/12 01:32:10;;;;;;;12.60;11.32;;;7.20;84.30;;;;;;5026079;28;20129;-69
2022/04/12 01:34:36;;;;;;;13.18;10.88;;;7.20;84.70;;;;;;5027304;28;20374;-69
2022/04/12 01:37:03;;;;;;;13.25;11.20;;;7.20;84.30;;;;;;5027746;28;20111;-69
2022/04/12 01:39:29;;;;;;;12.63;10.82;;;7.10;84.70;;;;;;5025297;28;20127;-69
2022/04/12 01:41:55;;;;;;;12.85;10.93;;;7.10;84.40;;;;;;5025285;28;20048;-68
2022/04/12 01:44:21;;;;;;;11.35;10.15;;;7.20;84.20;;;;;;5027824;28;20033;-69
2022/04/12 01:46:47;;;;;;;12.45;10.68;;;7.20;84.20;;;;;;5025662;28;20048;-68
2022/04/12 01:49:12;;;;;;;13.00;10.70;;;7.10;84.20;;;;;;5026238;28;20084;-69
2022/04/12 01:51:38;;;;;;;13.07;11.52;;;7.00;84.80;;;;;;5024838;28;20401;-69
2022/04/12 01:54:04;;;;;;;11.95;10.43;;;7.00;85.00;;;;;;5026834;28;20120;-68
2022/04/12 01:56:31;;;;;;;12.65;11.38;;;7.00;85.40;;;;;;5024965;28;20096;-69
2022/04/12 01:59:01;;;;;;;12.32;10.35;;;7.00;85.60;;;;;;5026335;28;20497;-69
2022/04/12 02:01:27;;;;;;;15.85;11.27;;;7.00;85.30;;;;;;5026044;28;20085;-69
2022/04/12 02:03:53;;;;;;;14.18;10.25;;;7.00;85.80;;;;;;5025167;28;20468;-69
2022/04/12 02:06:18;;;;;;;16.95;10.23;;;7.00;85.80;;;;;;5008103;28;20057;-69
2022/04/12 02:08:44;;;;;;;12.48;10.55;;;6.90;85.60;;;;;;5025428;28;20049;-69
2022/04/12 02:11:10;;;;;;;12.88;10.80;;;6.90;85.50;;;;;;5026960;28;20111;-69
2022/04/12 02:13:36;;;;;;;13.07;11.10;;;6.90;85.70;;;;;;5023529;28;20041;-69
2022/04/12 02:16:01;;;;;;;12.05;10.80;;;6.90;85.60;;;;;;5025143;28;20073;-69
2022/04/12 02:18:27;;;;;;;12.35;10.32;;;6.90;86.00;;;;;;5026450;28;20378;-69
2022/04/12 02:20:53;;;;;;;11.85;10.05;;;6.90;86.20;;;;;;5025567;28;20033;-67
2022/04/12 02:23:18;;;;;;;12.32;10.90;;;6.90;86.40;;;;;;5027620;28;20045;-68
2022/04/12 02:25:44;;;;;;;11.05;9.90;;;6.90;86.30;;;;;;5025283;28;20049;-68
2022/04/12 02:28:10;;;;;;;11.52;9.85;;;6.80;86.00;;;;;;5026602;28;20112;-68
2022/04/12 02:30:36;;;;;;;12.25;9.88;;;6.90;86.10;;;;;;5025304;28;20057;-69
2022/04/12 02:33:02;;;;;;;11.88;10.18;;;6.80;85.90;;;;;;5024765;28;20090;-68
2022/04/12 02:35:28;;;;;;;13.63;10.45;;;6.90;86.10;;;;;;5024940;28;20033;-68
2022/04/12 02:37:54;;;;;;;11.57;9.70;;;6.90;86.00;;;;;;5026381;28;20041;-68
2022/04/12 02:40:19;;;;;;;10.65;9.55;;;6.80;86.10;;;;;;5024078;28;20099;-68
2022/04/12 02:42:45;;;;;;;13.27;9.75;;;6.80;86.30;;;;;;5008292;28;20088;-68
2022/04/12 02:45:11;;;;;;;14.05;10.20;;;6.80;86.10;;;;;;5024668;28;20042;-68
2022/04/12 02:47:36;;;;;;;13.52;9.93;;;6.80;86.30;;;;;;5026818;28;20041;-68
2022/04/12 02:50:03;;;;;;;12.80;9.95;;;6.70;86.50;;;;;;5027292;28;20055;-68
2022/04/12 02:52:28;;;;;;;13.52;10.63;;;6.70;86.60;;;;;;5025387;28;20099;-68
2022/04/12 02:54:54;;;;;;;11.43;9.95;;;6.70;86.40;;;;;;5025490;28;20045;-68
2022/04/12 02:57:20;;;;;;;14.05;10.25;;;6.70;86.70;;;;;;5024682;28;20029;-68
2022/04/12 02:59:45;;;;;;;11.68;9.50;;;6.60;87.00;;;;;;5026062;28;20060;-68
2022/04/12 03:02:11;;;;;;;11.07;9.98;;;6.60;86.90;;;;;;5024562;28;20061;-68
2022/04/12 03:04:37;;;;;;;11.93;10.73;;;6.50;87.30;;;;;;5041085;28;20049;-68
2022/04/12 03:07:02;;;;;;;13.45;10.77;;;6.50;87.30;;;;;;5025040;28;20045;-68
2022/04/12 03:09:28;;;;;;;12.50;10.50;;;6.50;87.50;;;;;;5026459;28;20029;-68
2022/04/12 03:11:54;;;;;;;13.00;10.35;;;6.40;88.20;;;;;;5022944;28;20103;-68
2022/04/12 03:14:20;;;;;;;14.50;10.77;;;6.40;88.70;;;;;;5020197;28;20095;-68
2022/04/12 03:16:45;;;;;;;14.48;10.98;;;6.40;88.80;;;;;;5023999;28;20049;-68
2022/04/12 03:19:11;;;;;;;13.80;10.48;;;6.40;88.90;;;;;;5025548;28;20088;-68
2022/04/12 03:21:37;;;;;;;12.75;10.30;;;6.40;88.80;;;;;;5025621;28;20660;-68
2022/04/12 03:24:03;;;;;;;11.85;10.07;;;6.40;88.80;;;;;;5027370;28;20037;-68
2022/04/12 03:26:29;;;;;;;11.07;9.98;;;6.40;89.00;;;;;;5026760;28;20041;-68
2022/04/12 03:28:55;;;;;;;11.93;10.48;;;6.40;89.10;;;;;;5022847;28;20567;-68
2022/04/12 03:31:21;;;;;;;12.18;10.68;;;6.40;89.00;;;;;;5041278;28;20107;-68
2022/04/12 03:33:48;;;;;;;12.52;10.65;;;6.40;89.60;;;;;;5025716;28;20044;-68
2022/04/12 03:36:13;;;;;;;11.75;9.68;;;6.40;89.80;;;;;;5024653;28;20037;-68
2022/04/12 03:38:48;;;;;;;13.23;10.43;;;6.40;90.10;;;;;;5028947;28;20053;-68
2022/04/12 03:41:18;;;;;;;13.00;10.65;;;6.30;90.00;;;;;;5027945;28;20426;-68
2022/04/12 03:43:44;;;;;;;12.48;10.75;;;6.30;90.30;;;;;;5044958;28;20453;-68
2022/04/12 03:46:10;;;;;;;13.77;10.70;;;6.40;90.30;;;;;;5029227;28;20041;-68
2022/04/12 03:48:35;;;;;;;13.50;10.05;;;6.30;90.50;;;;;;5029971;28;20092;-69
2022/04/12 03:51:01;;;;;;;11.63;10.38;;;6.40;90.40;;;;;;5026686;28;20140;-68
2022/04/12 03:53:27;;;;;;;13.00;11.23;;;6.30;90.10;;;;;;5028132;28;20112;-68
2022/04/12 03:55:55;;;;;;;11.80;10.15;;;6.30;90.20;;;;;;5028876;28;20061;-68
2022/04/12 03:58:20;;;;;;;13.73;10.68;;;6.30;90.50;;;;;;5028281;28;20041;-68
2022/04/12 04:00:46;;;;;;;11.75;10.15;;;6.40;90.60;;;;;;5027852;28;20540;-67
2022/04/12 04:03:12;;;;;;;11.95;10.65;;;6.30;90.80;;;;;;5026540;28;20061;-68
2022/04/12 04:05:37;;;;;;;12.82;10.85;;;6.30;90.60;;;;;;5027160;28;20049;-68
2022/04/12 04:08:03;;;;;;;11.77;9.88;;;6.20;90.70;;;;;;5011605;28;20369;-68
2022/04/12 04:10:29;;;;;;;12.07;10.60;;;6.30;91.10;;;;;;5028470;28;20401;-67
2022/04/12 04:12:55;;;;;;;11.98;10.38;;;6.20;91.10;;;;;;5027287;28;20116;-68
2022/04/12 04:15:20;;;;;;;12.30;10.25;;;6.20;91.20;;;;;;5028175;28;20110;-68
2022/04/12 04:17:47;;;;;;;12.10;9.82;;;6.20;91.20;;;;;;5027209;28;20059;-68
2022/04/12 04:20:18;;;;;;;12.05;9.95;;;6.20;91.20;;;;;;5029012;28;20113;-68
2022/04/12 04:22:44;;;;;;;11.98;9.27;;;6.20;91.10;;;;;;5029147;28;20554;-68
2022/04/12 04:25:12;;;;;;;10.57;9.40;;;6.20;91.30;;;;;;5011984;28;20072;-68
2022/04/12 04:27:39;;;;;;;12.60;10.70;;;6.10;91.20;;;;;;5027820;28;20046;-68
2022/04/12 04:30:07;;;;;;;15.90;10.85;;;6.20;91.30;;;;;;5032083;28;20050;-68
2022/04/12 04:32:34;;;;;;;12.07;10.25;;;6.20;91.40;;;;;;5023860;28;20044;-68
2022/04/12 04:35:00;;;;;;;12.07;9.88;;;6.20;91.50;;;;;;5029909;28;20379;-69
2022/04/12 04:37:26;;;;;;;12.50;10.88;;;6.10;91.50;;;;;;5033573;28;20060;-69
2022/04/12 04:39:52;;;;;;;12.57;10.38;;;6.10;91.80;;;;;;5030262;28;20439;-68
2022/04/12 04:42:20;;;;;;;12.73;10.40;;;6.10;91.50;;;;;;5031355;28;20048;-68
2022/04/12 04:44:47;;;;;;;12.13;10.57;;;6.10;91.50;;;;;;5031732;28;20213;-68
2022/04/12 04:47:13;;;;;;;13.57;10.63;;;6.10;91.40;;;;;;5031052;28;20509;-68
2022/04/12 04:49:38;;;;;;;12.60;10.73;;;6.10;91.60;;;;;;5031877;28;20048;-68
2022/04/12 04:52:05;;;;;;;11.77;10.00;;;6.00;91.60;;;;;;5033184;28;20584;-69
2022/04/12 04:54:30;;;;;;;12.00;9.65;;;6.10;91.90;;;;;;5031880;28;20033;-69
2022/04/12 04:56:56;;;;;;;13.30;10.13;;;6.00;92.10;;;;;;5014327;28;20052;-69
2022/04/12 04:59:22;;;;;;;13.25;9.98;;;6.10;92.00;;;;;;5031197;28;20078;-68
2022/04/12 05:01:48;;;;;;;12.02;9.88;;;6.10;91.90;;;;;;5028442;28;20052;-69
2022/04/12 05:04:13;;;;;;;11.27;10.02;;;6.10;92.10;;;;;;5015150;28;20401;-69
2022/04/12 05:06:39;;;;;;;14.20;10.23;;;6.10;92.10;;;;;;5031419;28;20041;-69
2022/04/12 05:09:05;;;;;;;12.80;9.52;;;6.10;91.80;;;;;;5030688;28;20063;-68
2022/04/12 05:11:31;;;;;;;10.95;9.48;;;6.10;91.80;;;;;;5032542;28;20029;-68
2022/04/12 05:13:57;;;;;;;12.43;10.60;;;6.00;91.90;;;;;;5031785;28;20060;-69
2022/04/12 05:16:23;;;;;;;12.93;9.85;;;6.10;92.10;;;;;;5031669;28;20103;-69
2022/04/12 05:18:51;;;;;;;10.93;9.75;;;6.10;92.10;;;;;;5031514;28;20045;-69
2022/04/12 05:21:18;;;;;;;13.20;10.38;;;6.10;92.30;;;;;;5031189;28;20076;-69
2022/04/12 05:23:44;;;;;;;12.38;9.93;;;6.20;92.20;;;;;;5031231;28;20045;-69
2022/04/12 05:26:10;;;;;;;12.05;9.52;;;6.20;92.40;;;;;;5031228;28;20099;-69
2022/04/12 05:28:36;;;;;;;13.38;10.55;;;6.30;92.50;;;;;;5030706;28;20104;-69
2022/04/12 05:31:02;;;;;;;11.77;9.82;;;6.30;92.40;;;;;;5028422;28;20585;-69
2022/04/12 05:33:27;;;;;;;10.52;9.43;;;6.40;92.30;;;;;;5032361;28;20037;-69
2022/04/12 05:35:53;;;;;;;12.55;9.60;;;6.60;92.30;;;;;;5030953;28;20037;-69
2022/04/12 05:38:19;;;;;;;10.90;9.80;;;6.60;92.20;;;;;;5031504;28;20033;-69
2022/04/12 05:40:45;;;;;;;13.57;10.05;;;6.70;92.00;;;;;;5029153;28;20069;-69
2022/04/12 05:43:11;;;;;;;12.45;9.85;;;6.90;92.10;;;;;;5046384;28;20087;-69
2022/04/12 05:45:37;;;;;;;9.63;8.60;;;7.10;91.80;;;;;;5012742;28;20430;-69
2022/04/12 05:48:03;;;;;;;11.95;9.73;;;7.30;91.50;;;;;;5031352;28;20041;-69
2022/04/12 05:50:29;;;;;;;11.23;9.85;;;7.40;91.20;;;;;;5029957;28;20049;-69
2022/04/12 05:52:55;;;;;;;11.35;9.50;;;7.50;91.10;;;;;;5030724;28;20080;-69
2022/04/12 05:55:23;;;;;;;11.98;9.57;;;7.60;91.00;;;;;;5031014;28;20466;-69
2022/04/12 05:57:59;;;;;;;10.30;9.20;;;7.70;90.90;;;;;;5014374;28;20052;-69
2022/04/12 06:00:28;;;;;;;11.30;9.95;;;7.80;90.90;;;;;;5027938;28;20638;-69
2022/04/12 06:02:55;;;;;;;11.05;8.70;;;7.80;90.30;;;;;;5028774;28;20044;-68
2022/04/12 06:05:23;;;;;;;11.32;9.77;;;7.80;90.40;;;;;;5031834;28;20108;-69
2022/04/12 06:07:50;;;;;;;15.38;10.05;;;7.90;90.30;;;;;;5028962;28;20433;-69
2022/04/12 06:10:18;;;;;;;10.32;9.07;;;7.90;90.30;;;;;;5031287;28;20045;-69
2022/04/12 06:12:44;;;;;;;11.35;9.80;;;7.80;89.60;;;;;;5029074;28;20033;-69
2022/04/12 06:15:10;;;;;;;12.32;9.48;;;7.80;90.10;;;;;;5029375;28;20072;-69
2022/04/12 06:17:37;;;;;;;13.52;9.75;;;7.90;90.20;;;;;;5027070;28;20091;-69
2022/04/12 06:20:12;;;;;;;12.23;9.23;;;7.90;89.90;;;;;;5030874;28;20099;-69
2022/04/12 06:22:38;;;;;;;10.88;9.20;;;8.00;89.80;;;;;;5030316;28;20117;-69
2022/04/12 06:25:05;;;;;;;11.52;9.55;;;8.10;90.10;;;;;;5028943;28;20076;-69
2022/04/12 06:27:41;;;;;;;11.15;9.90;;;8.10;90.10;;;;;;5029793;28;20069;-69
2022/04/12 06:30:15;;;;;;;11.98;9.45;;;8.10;90.10;;;;;;5026647;28;20041;-69
2022/04/12 06:32:42;;;;;;;10.43;9.00;;;8.20;90.00;;;;;;5029152;28;20061;-69
2022/04/12 06:35:09;;;;;;;9.60;8.60;;;8.20;89.90;;;;;;5029419;28;20849;-69
2022/04/12 06:37:36;;;;;;;10.60;8.88;;;8.30;90.10;;;;;;5029587;28;20473;-69
2022/04/12 06:40:04;;;;;;;12.30;9.00;;;8.30;90.10;;;;;;5027962;28;20416;-69
2022/04/12 06:42:30;;;;;;;11.52;8.90;;;8.40;90.20;;;;;;5028091;28;20048;-69
2022/04/12 06:44:56;;;;;;;11.60;9.38;;;8.50;90.20;;;;;;5012564;28;20061;-69
2022/04/12 06:47:22;;;;;;;13.90;9.43;;;8.50;90.10;;;;;;5028561;28;20057;-69
2022/04/12 06:49:49;;;;;;;13.20;9.65;;;8.60;90.10;;;;;;5028457;28;20735;-69
2022/04/12 06:52:16;;;;;;;11.52;8.35;;;8.60;90.00;;;;;;5028755;28;20044;-69
2022/04/12 06:54:42;;;;;;;11.65;8.68;;;8.70;89.90;;;;;;5028766;28;20072;-69
2022/04/12 06:57:08;;;;;;;11.85;9.05;;;8.70;89.30;;;;;;5013464;28;20108;-69
2022/04/12 06:59:34;;;;;;;9.77;8.77;;;8.70;89.10;;;;;;5028724;28;20042;-69
2022/04/12 07:02:04;;;;;;;10.90;9.65;;;8.80;89.00;;;;;;5028350;28;20121;-69
2022/04/12 07:04:30;;;;;;;12.18;9.10;;;8.80;88.60;;;;;;5012483;28;20512;-69
2022/04/12 07:06:56;;;;;;;11.57;8.77;;;8.80;88.10;;;;;;5028125;28;20447;-69
2022/04/12 07:09:31;;;;;;;10.45;9.13;;;8.80;88.20;;;;;;5027693;28;20041;-69
2022/04/12 07:11:59;;;;;;;11.27;8.98;;;9.10;88.40;;;;;;5024760;28;20118;-69
2022/04/12 07:14:26;;;;;;;10.38;8.93;;;9.40;88.10;;;;;;5028647;28;20037;-69
2022/04/12 07:16:52;;;;;;;11.52;8.75;;;9.50;87.50;;;;;;5027465;28;20049;-68
2022/04/12 07:19:18;;;;;;;12.75;8.70;;;9.80;87.50;;;;;;5012578;28;20046;-68
2022/04/12 07:21:43;;;;;;;10.35;8.75;;;10.50;88.00;;;;;;5011563;28;20057;-69
2022/04/12 07:24:09;;;;;;;10.10;8.85;;;11.20;85.30;;;;;;5029036;28;20058;-69
2022/04/12 07:26:36;;;;;;;9.65;8.65;;;12.00;84.70;;;;;;5026660;28;20045;-69
2022/04/12 07:29:02;;;;;;;12.32;8.25;;;12.60;81.40;;;;;;5028623;28;20053;-69
2022/04/12 07:31:29;;;;;;;9.43;8.40;;;13.30;79.80;;;;;;5013147;28;20590;-69
2022/04/12 07:33:55;;;;;;;9.45;7.82;;;13.90;77.30;;;;;;5011576;28;20049;-70
2022/04/12 07:36:21;;;;;;;9.65;7.85;;;14.20;73.70;;;;;;5028116;28;20052;-70
2022/04/12 07:38:48;;;;;;;9.10;8.10;;;14.30;71.60;;;;;;5026894;28;20128;-69
2022/04/12 07:41:15;;;;;;;9.25;8.05;;;14.40;70.90;;;;;;5025953;28;20560;-69
2022/04/12 07:43:42;;;;;;;9.20;8.23;;;14.70;70.80;;;;;;5030790;28;20052;-69
2022/04/12 07:46:08;;;;;;;9.25;8.25;;;14.90;69.90;;;;;;5025537;28;20072;-69
2022/04/12 07:48:34;;;;;;;9.38;8.38;;;15.00;71.30;;;;;;5026542;28;20045;-70
2022/04/12 07:51:00;;;;;;;11.98;8.10;;;15.00;70.40;;;;;;5028273;28;20060;-70
2022/04/12 07:53:25;;;;;;;8.48;7.55;;;14.90;67.60;;;;;;5027457;28;20040;-72
2022/04/12 07:55:51;;;;;;;11.82;8.30;;;15.00;66.10;;;;;;5028090;28;20049;-70
2022/04/12 07:58:17;;;;;;;9.38;7.88;;;15.10;66.00;;;;;;5025615;28;20037;-69
2022/04/12 08:00:43;;;;;;;8.75;7.60;;;15.40;66.60;;;;;;5026099;28;20114;-70
2022/04/12 08:03:08;;;;;;;9.25;7.88;;;15.60;64.20;;;;;;5021447;28;20046;-70
2022/04/12 08:05:35;;;;;;;9.25;7.85;;;15.70;63.40;;;;;;5026146;28;20037;-70
2022/04/12 08:08:01;;;;;;;8.88;7.75;;;16.00;64.30;;;;;;5026702;28;20091;-70
2022/04/12 08:10:27;;;;;;;9.55;7.28;;;16.10;61.40;;;;;;5026675;28;20429;-70
2022/04/12 08:12:53;;;;;;;8.50;7.60;;;16.00;61.90;;;;;;5011140;28;20106;-69
2022/04/12 08:15:19;;;;;;;11.20;7.85;;;15.80;61.50;;;;;;5012017;28;20077;-70
2022/04/12 08:17:45;;;;;;;9.00;7.13;;;15.80;62.80;;;;;;5010225;28;20064;-70
2022/04/12 08:20:13;;;;;;;11.85;7.70;;;15.80;62.80;;;;;;5028838;28;20528;-70
2022/04/12 08:22:39;;;;;;;8.90;7.45;;;15.80;60.80;;;;;;5024246;28;20045;-71
2022/04/12 08:25:06;;;;;;;14.18;11.48;;;15.80;62.40;;;;;;5029097;28;20049;-71
2022/04/12 08:27:31;;;;;;;10.25;7.32;;;15.90;62.80;;;;;;5026911;28;20053;-71
2022/04/12 08:29:57;;;;;;;9.68;7.30;;;16.30;62.50;;;;;;5027296;28;20041;-71
2022/04/12 08:32:23;;;;;;;8.13;7.25;;;16.50;60.70;;;;;;5026411;28;20064;-71
2022/04/12 08:34:48;;;;;;;9.98;7.32;;;16.70;62.10;;;;;;5027498;28;20037;-71
2022/04/12 08:37:14;;;;;;;9.02;7.05;;;17.00;60.20;;;;;;5026960;28;20505;-71
2022/04/12 08:39:40;;;;;;;10.77;7.85;;;17.20;58.00;;;;;;5028450;28;20450;-71
2022/04/12 08:42:06;;;;;;;8.00;7.00;;;17.30;59.50;;;;;;5026127;28;20041;-71
2022/04/12 08:44:33;;;;;;;8.80;6.50;;;17.80;60.70;;;;;;5027795;28;20072;-71
2022/04/12 08:47:04;;;;;;;8.95;6.82;;;18.20;58.10;;;;;;5023378;28;20076;-72
2022/04/12 08:49:32;;;;;;;7.82;6.97;;;18.20;56.50;;;;;;5025025;28;20115;-73
2022/04/12 08:51:58;;;;;;;8.75;6.97;;;17.90;56.60;;;;;;5026542;28;20060;-72
2022/04/12 08:54:25;;;;;;;8.13;7.15;;;18.00;56.70;;;;;;5012084;28;20048;-72
2022/04/12 08:56:52;;;;;;;8.38;7.38;;;18.20;57.00;;;;;;5024724;28;20049;-72
2022/04/12 08:59:19;;;;;;;8.18;7.35;;;18.40;58.00;;;;;;5027243;28;20116;-71
2022/04/12 09:01:46;;;;;;;7.47;6.72;;;18.50;56.30;;;;;;5025247;28;20376;-71
2022/04/12 09:04:13;;;;;;;7.97;6.60;;;18.50;56.50;;;;;;5028299;28;20119;-71
2022/04/12 09:06:53;;;;;;;8.55;6.88;;;18.50;54.60;;;;;;5025387;28;20549;-71
2022/04/12 09:09:27;;;;;;;9.30;6.95;;;18.50;54.80;;;;;;5028352;28;20037;-72
2022/04/12 09:12:04;;;;;;;8.05;7.25;;;18.50;54.90;;;;;;5026006;28;20042;-71
2022/04/12 09:14:45;;;;;;;8.38;6.65;;;18.50;54.30;;;;;;5012433;28;20623;-72
2022/04/12 09:17:14;;;;;;;8.00;7.20;;;18.50;56.50;;;;;;5029936;28;20045;-71
2022/04/12 09:19:45;;;;;;;8.35;7.18;;;18.70;54.50;;;;;;5031895;28;20362;-72
2022/04/12 09:22:14;;;;;;;8.05;6.65;;;18.60;55.90;;;;;;5026342;28;20172;-71
2022/04/12 09:24:48;;;;;;;7.57;6.85;;;18.50;55.10;;;;;;5031616;28;20462;-71
2022/04/12 09:27:15;;;;;;;8.15;7.18;;;18.60;55.20;;;;;;5014040;28;20057;-75
2022/04/12 09:29:55;;;;;;;8.50;7.57;;;18.50;56.00;;;;;;5030695;28;20046;-72
2022/04/12 09:32:25;;;;;;;7.78;6.93;;;18.40;54.40;;;;;;5018878;28;20053;-72
2022/04/12 09:34:52;;;;;;;8.70;7.35;;;18.40;56.60;;;;;;5031574;28;20068;-72
2022/04/12 09:37:20;;;;;;;7.47;6.63;;;18.60;56.00;;;;;;5029878;28;20049;-72
2022/04/12 09:39:55;;;;;;;8.07;7.28;;;18.70;55.00;;;;;;5030013;28;20488;-71
2022/04/12 09:42:48;;;;;;;8.07;6.78;;;18.80;55.70;;;;;;5030062;28;20112;-72
2022/04/12 09:45:16;;;;;;;8.35;7.00;;;18.80;55.90;;;;;;5031503;28;20049;-72
2022/04/12 09:47:43;;;;;;;7.65;6.55;;;18.70;55.80;;;;;;5031185;28;20125;-71
2022/04/12 09:50:10;;;;;;;7.65;6.80;;;18.70;55.70;;;;;;5030364;28;20053;-72
2022/04/12 09:52:37;;;;;;;8.05;6.95;;;19.00;55.90;;;;;;5030637;28;20135;-72
2022/04/12 09:55:03;;;;;;;9.50;6.93;;;19.20;56.20;;;;;;5029059;28;20085;-74
2022/04/12 09:57:30;;;;;;;7.30;6.50;;;19.50;55.30;;;;;;5031509;28;20485;-72
2022/04/12 09:59:57;;;;;;;7.80;6.55;;;19.70;55.30;;;;;;5013869;28;20107;-72
2022/04/12 10:02:27;;;;;;;7.97;6.45;;;19.70;56.00;;;;;;5028705;28;20060;-72
2022/04/12 10:04:54;;;;;;;7.65;6.93;;;19.70;55.70;;;;;;5013581;28;20474;-72
2022/04/12 10:07:22;;;;;;;8.68;6.53;;;19.70;54.40;;;;;;5012564;28;20053;-72
2022/04/12 10:09:50;;;;;;;7.10;6.38;;;19.50;55.00;;;;;;5028308;28;20053;-72
2022/04/12 10:12:17;;;;;;;7.40;6.28;;;19.40;55.20;;;;;;5030228;28;20450;-71
2022/04/12 10:14:43;;;;;;;7.70;6.70;;;19.40;54.00;;;;;;5029526;28;20113;-71
2022/04/12 10:17:10;;;;;;;10.32;7.00;;;19.40;54.90;;;;;;5028916;28;20083;-71
2022/04/12 10:19:37;;;;;;;7.45;6.65;;;19.40;55.40;;;;;;5031110;28;20389;-71
2022/04/12 10:22:03;;;;;;;7.53;6.72;;;19.40;55.50;;;;;;5028997;28;20152;-70
2022/04/12 10:24:30;;;;;;;8.38;6.70;;;19.50;56.30;;;;;;5014611;28;20115;-72
2022/04/12 10:26:57;;;;;;;7.47;6.68;;;19.60;55.00;;;;;;5028880;28;20061;-72
2022/04/12 10:29:23;;;;;;;7.35;6.38;;;19.80;54.00;;;;;;5030999;28;20045;-73
2022/04/12 10:31:57;;;;;;;6.80;6.10;;;19.80;55.10;;;;;;5029068;28;20067;-71
2022/04/12 10:34:22;;;;;;;;;;;20.00;54.10;;;;;;5027389;28;20120;-71
2022/04/12 10:37:00;;;;;;;7.35;6.22;;;20.00;54.80;;;;;;5031864;28;20491;-71
2022/04/12 10:39:46;;;;;;;8.02;6.47;;;19.90;54.30;;;;;;5027826;28;20076;-71
2022/04/12 10:42:17;;;;;;;11.32;6.35;;;20.00;53.40;;;;;;5029530;28;20555;-71
2022/04/12 10:45:01;;;;;;;7.30;6.57;;;20.00;54.60;;;;;;5028971;28;20061;-73
2022/04/12 10:47:42;;;;;;;8.07;6.43;;;20.20;53.50;;;;;;5013478;28;20053;-73
2022/04/12 10:50:10;;;;;;;7.22;6.53;;;20.30;53.90;;;;;;5026815;28;20478;-72
2022/04/12 10:52:41;;;;;;;8.75;7.25;;;20.20;53.60;;;;;;5029082;28;20160;-73
2022/04/12 10:55:09;;;;;;;8.02;6.93;;;20.30;54.30;;;;;;5031814;28;20481;-71
2022/04/12 10:57:35;;;;;;;7.82;7.03;;;20.30;54.80;;;;;;5030574;28;20077;-71
2022/04/12 11:00:08;;;;;;;9.18;7.00;;;20.50;55.00;;;;;;5032082;28;20457;-71
2022/04/12 11:02:55;;;;;;;8.55;7.20;;;20.80;53.80;;;;;;5028249;28;20543;-71
2022/04/12 11:05:37;;;;;;;7.88;5.85;;;21.00;52.60;;;;;;5025805;28;20091;-71
2022/04/12 11:08:34;;;;;;;7.50;6.70;;;21.10;52.00;;;;;;5031554;28;20381;-71
2022/04/12 11:11:00;;;;;;;7.10;6.32;;;21.40;52.80;;;;;;5027159;28;20057;-71
2022/04/12 11:13:33;;;;;;;10.00;6.57;;;21.60;51.50;;;;;;5027088;28;20099;-71
2022/04/12 11:16:18;;;;;;;7.30;6.60;;;21.70;50.70;;;;;;5016184;28;20266;-70
2022/04/12 11:18:55;;;;;;;9.15;7.32;;;21.70;50.20;;;;;;5028076;28;20062;-71
2022/04/12 11:21:23;;;;;;;7.88;6.90;;;21.70;50.40;;;;;;5027742;28;20516;-70
2022/04/12 11:23:51;;;;;;;7.63;6.63;;;21.50;50.90;;;;;;5027105;28;20342;-70
2022/04/12 11:26:38;;;;;;;8.40;6.93;;;21.30;50.80;;;;;;5030551;28;20115;-70
2022/04/12 11:29:09;;;;;;;9.18;6.80;;;21.00;51.10;;;;;;5007332;28;20046;-70
2022/04/12 11:31:42;;;;;;;9.90;7.45;;;20.80;53.10;;;;;;5009449;28;20139;-71
2022/04/12 11:34:09;;;;;;;9.63;6.97;;;20.80;52.00;;;;;;5027381;28;20124;-70
2022/04/12 11:36:36;;;;;;;9.23;7.78;;;20.50;53.00;;;;;;5027158;28;20060;-69
2022/04/12 11:39:03;;;;;;;11.75;7.82;;;20.50;53.40;;;;;;5029045;28;20049;-71
2022/04/12 11:41:32;;;;;;;10.60;7.60;;;20.50;53.70;;;;;;5026510;28;20056;-71
2022/04/12 11:43:59;;;;;;;8.32;6.97;;;20.50;52.70;;;;;;5028712;28;20489;-71
2022/04/12 11:46:24;;;;;;;13.80;7.72;;;20.70;54.10;;;;;;5025100;28;20089;-72
2022/04/12 11:48:50;;;;;;;8.75;6.93;;;20.80;52.20;;;;;;5010659;28;20721;-72
2022/04/12 11:51:17;;;;;;;9.63;8.02;;;20.60;53.40;;;;;;5028594;28;20458;-71
2022/04/12 11:53:50;;;;;;;9.85;7.30;;;20.50;53.00;;;;;;5026662;28;20190;-72
2022/04/12 11:56:16;;;;;;;10.43;7.97;;;20.60;52.40;;;;;;5018209;28;20053;-71
2022/04/12 11:58:45;;;;;;;9.32;8.23;;;20.40;54.00;;;;;;5028113;28;20497;-71
2022/04/12 12:01:13;;;;;;;14.88;8.20;;;20.40;54.70;;;;;;5025795;28;20106;-71
2022/04/12 12:03:42;;;;;;;9.02;6.95;;;20.50;55.30;;;;;;5026723;28;20053;-71
2022/04/12 12:06:09;;;;;;;8.38;6.70;;;21.10;53.10;;;;;;5028427;28;20053;-71
2022/04/12 12:08:35;;;;;;;10.02;7.63;;;21.50;52.00;;;;;;5027911;28;20057;-71
2022/04/12 12:11:13;;;;;;;8.32;7.53;;;21.70;51.90;;;;;;5027246;28;20061;-71
2022/04/12 12:13:38;;;;;;;11.80;7.65;;;21.90;51.10;;;;;;5024310;28;20049;-72
2022/04/12 12:16:14;;;;;;;10.65;8.48;;;22.00;50.80;;;;;;5026180;28;20061;-72
2022/04/12 12:18:40;;;;;;;11.32;8.15;;;22.20;50.30;;;;;;5029224;28;20037;-71
2022/04/12 12:21:06;;;;;;;9.23;8.25;;;22.10;50.70;;;;;;5026582;28;20060;-71
2022/04/12 12:23:31;;;;;;;10.90;9.02;;;22.20;50.80;;;;;;5028199;28;20303;-71
2022/04/12 12:25:57;;;;;;;9.93;7.97;;;21.80;50.60;;;;;;5028322;28;20057;-71
2022/04/12 12:28:25;;;;;;;10.93;8.48;;;21.60;50.70;;;;;;5027680;28;20453;-71
2022/04/12 12:31:00;;;;;;;11.77;8.90;;;21.50;51.10;;;;;;5028124;28;20062;-71
2022/04/12 12:33:39;;;;;;;10.02;8.18;;;21.70;51.00;;;;;;5027216;28;20507;-71
2022/04/12 12:36:19;;;;;;;9.30;7.88;;;22.20;51.70;;;;;;5026744;28;20058;-70
2022/04/12 12:38:45;;;;;;;9.40;7.97;;;22.60;51.30;;;;;;5027840;28;20068;-71
2022/04/12 12:41:22;;;;;;;10.20;8.50;;;22.80;50.50;;;;;;5026174;28;20530;-70
2022/04/12 12:43:56;;;;;;;11.50;8.25;;;22.70;50.90;;;;;;5026134;28;20080;-71
2022/04/12 12:46:23;;;;;;;;;;;22.60;50.10;;;;;;5024481;28;20064;-70
2022/04/12 12:49:16;;;;;;;8.30;7.40;;;22.80;50.00;;;;;;5028022;28;19917;-71